sensor_id;sensor_type;location;lat;lon;timestamp;temperature;humidity
66598;DHT22;57424;53.128;6.406;2022-09-01T00:01:30;22.60;52.60
66598;DHT22;57424;53.128;6.406;2022-09-01T00:03:57;22.60;52.60
66598;DHT22;57424;53.128;6.406;2022-09-01T00:06:28;22.60;52.70
66598;DHT22;57424;53.128;6.406;2022-09-01T00:08:56;22.60;52.60
66598;DHT22;57424;53.128;6.406;2022-09-01T00:11:24;22.70;52.70
66598;DHT22;57424;53.128;6.406;2022-09-01T00:13:50;22.60;53.40
66598;DHT22;57424;53.128;6.406;2022-09-01T00:16:17;22.60;52.70
66598;DHT22;57424;53.128;6.406;2022-09-01T00:18:45;22.60;52.70
66598;DHT22;57424;53.128;6.406;2022-09-01T00:21:11;22.60;52.70
66598;DHT22;57424;53.128;6.406;2022-09-01T00:23:37;22.60;52.70
66598;DHT22;57424;53.128;6.406;2022-09-01T00:26:03;22.60;52.70
66598;DHT22;57424;53.128;6.406;2022-09-01T00:28:32;22.60;52.70
66598;DHT22;57424;53.128;6.406;2022-09-01T00:30:58;22.60;52.70
66598;DHT22;57424;53.128;6.406;2022-09-01T00:33:24;22.60;52.70
66598;DHT22;57424;53.128;6.406;2022-09-01T00:35:49;22.60;52.80
66598;DHT22;57424;53.128;6.406;2022-09-01T00:38:15;22.60;52.70
66598;DHT22;57424;53.128;6.406;2022-09-01T00:40:40;22.60;52.70
66598;DHT22;57424;53.128;6.406;2022-09-01T00:43:44;22.50;52.60
66598;DHT22;57424;53.128;6.406;2022-09-01T00:46:14;22.50;52.60
66598;DHT22;57424;53.128;6.406;2022-09-01T00:48:40;22.50;52.60
66598;DHT22;57424;53.128;6.406;2022-09-01T00:51:06;22.50;52.60
66598;DHT22;57424;53.128;6.406;2022-09-01T00:53:35;22.50;52.70
66598;DHT22;57424;53.128;6.406;2022-09-01T00:56:03;22.50;52.70
66598;DHT22;57424;53.128;6.406;2022-09-01T00:58:29;22.50;52.70
66598;DHT22;57424;53.128;6.406;2022-09-01T01:00:55;22.50;52.70
66598;DHT22;57424;53.128;6.406;2022-09-01T01:03:21;22.50;52.70
66598;DHT22;57424;53.128;6.406;2022-09-01T01:05:53;22.50;52.60
66598;DHT22;57424;53.128;6.406;2022-09-01T01:08:26;22.50;52.60
66598;DHT22;57424;53.128;6.406;2022-09-01T01:11:04;22.50;52.70
66598;DHT22;57424;53.128;6.406;2022-09-01T01:13:30;22.50;52.70
66598;DHT22;57424;53.128;6.406;2022-09-01T01:16:01;22.50;52.70
66598;DHT22;57424;53.128;6.406;2022-09-01T01:18:27;22.50;52.70
66598;DHT22;57424;53.128;6.406;2022-09-01T01:21:05;22.50;52.70
66598;DHT22;57424;53.128;6.406;2022-09-01T01:23:58;22.50;52.70
66598;DHT22;57424;53.128;6.406;2022-09-01T01:26:27;22.50;52.70
66598;DHT22;57424;53.128;6.406;2022-09-01T01:28:52;22.40;52.60
66598;DHT22;57424;53.128;6.406;2022-09-01T01:31:19;22.40;52.60
66598;DHT22;57424;53.128;6.406;2022-09-01T01:33:53;22.40;52.60
66598;DHT22;57424;53.128;6.406;2022-09-01T01:36:29;22.40;52.60
66598;DHT22;57424;53.128;6.406;2022-09-01T01:39:05;22.40;52.70
66598;DHT22;57424;53.128;6.406;2022-09-01T01:41:32;22.40;52.60
66598;DHT22;57424;53.128;6.406;2022-09-01T01:43:59;22.40;52.60
66598;DHT22;57424;53.128;6.406;2022-09-01T01:46:26;22.40;52.60
66598;DHT22;57424;53.128;6.406;2022-09-01T01:48:52;22.40;52.60
66598;DHT22;57424;53.128;6.406;2022-09-01T01:51:19;22.40;52.60
66598;DHT22;57424;53.128;6.406;2022-09-01T01:53:46;22.40;52.60
66598;DHT22;57424;53.128;6.406;2022-09-01T01:56:12;22.40;52.60
66598;DHT22;57424;53.128;6.406;2022-09-01T01:58:38;22.40;52.60
66598;DHT22;57424;53.128;6.406;2022-09-01T02:01:05;22.40;52.60
66598;DHT22;57424;53.128;6.406;2022-09-01T02:03:35;22.40;52.60
66598;DHT22;57424;53.128;6.406;2022-09-01T02:06:04;22.40;52.60
66598;DHT22;57424;53.128;6.406;2022-09-01T02:08:32;22.40;52.60
66598;DHT22;57424;53.128;6.406;2022-09-01T02:11:01;22.40;52.60
66598;DHT22;57424;53.128;6.406;2022-09-01T02:13:27;22.40;52.60
66598;DHT22;57424;53.128;6.406;2022-09-01T02:15:56;22.30;52.60
66598;DHT22;57424;53.128;6.406;2022-09-01T02:18:37;22.40;52.60
66598;DHT22;57424;53.128;6.406;2022-09-01T02:21:07;22.30;52.60
66598;DHT22;57424;53.128;6.406;2022-09-01T02:23:37;22.40;52.70
66598;DHT22;57424;53.128;6.406;2022-09-01T02:26:03;22.30;52.60
66598;DHT22;57424;53.128;6.406;2022-09-01T02:28:31;22.30;52.60
66598;DHT22;57424;53.128;6.406;2022-09-01T02:30:59;22.30;52.60
66598;DHT22;57424;53.128;6.406;2022-09-01T02:33:26;22.30;52.70
66598;DHT22;57424;53.128;6.406;2022-09-01T02:35:58;22.30;52.70
66598;DHT22;57424;53.128;6.406;2022-09-01T02:38:25;22.30;52.70
66598;DHT22;57424;53.128;6.406;2022-09-01T02:40:57;22.30;52.70
66598;DHT22;57424;53.128;6.406;2022-09-01T02:43:24;22.30;52.70
66598;DHT22;57424;53.128;6.406;2022-09-01T02:45:55;22.30;52.70
66598;DHT22;57424;53.128;6.406;2022-09-01T02:48:30;22.30;52.70
66598;DHT22;57424;53.128;6.406;2022-09-01T02:51:02;22.30;52.70
66598;DHT22;57424;53.128;6.406;2022-09-01T02:53:29;22.30;52.70
66598;DHT22;57424;53.128;6.406;2022-09-01T02:55:55;22.30;52.70
66598;DHT22;57424;53.128;6.406;2022-09-01T02:58:24;22.30;52.60
66598;DHT22;57424;53.128;6.406;2022-09-01T03:00:54;22.30;52.70
66598;DHT22;57424;53.128;6.406;2022-09-01T03:03:20;22.30;52.60
66598;DHT22;57424;53.128;6.406;2022-09-01T03:05:47;22.30;52.60
66598;DHT22;57424;53.128;6.406;2022-09-01T03:08:13;22.20;52.60
66598;DHT22;57424;53.128;6.406;2022-09-01T03:10:43;22.20;52.50
66598;DHT22;57424;53.128;6.406;2022-09-01T03:13:13;22.20;52.60
66598;DHT22;57424;53.128;6.406;2022-09-01T03:15:40;22.30;52.60
66598;DHT22;57424;53.128;6.406;2022-09-01T03:18:07;22.30;52.60
66598;DHT22;57424;53.128;6.406;2022-09-01T03:20:36;22.20;52.60
66598;DHT22;57424;53.128;6.406;2022-09-01T03:23:05;22.30;52.60
66598;DHT22;57424;53.128;6.406;2022-09-01T03:25:34;22.20;52.50
66598;DHT22;57424;53.128;6.406;2022-09-01T03:28:01;22.20;52.60
66598;DHT22;57424;53.128;6.406;2022-09-01T03:30:28;22.20;52.60
66598;DHT22;57424;53.128;6.406;2022-09-01T03:32:56;22.20;52.60
66598;DHT22;57424;53.128;6.406;2022-09-01T03:35:24;22.20;52.50
66598;DHT22;57424;53.128;6.406;2022-09-01T03:37:50;22.20;52.60
66598;DHT22;57424;53.128;6.406;2022-09-01T03:40:17;22.20;52.50
66598;DHT22;57424;53.128;6.406;2022-09-01T03:42:43;22.20;52.60
66598;DHT22;57424;53.128;6.406;2022-09-01T03:45:10;22.20;52.50
66598;DHT22;57424;53.128;6.406;2022-09-01T03:47:37;22.20;52.50
66598;DHT22;57424;53.128;6.406;2022-09-01T03:50:07;22.20;52.50
66598;DHT22;57424;53.128;6.406;2022-09-01T03:52:37;22.10;52.50
66598;DHT22;57424;53.128;6.406;2022-09-01T03:55:05;22.20;52.60
66598;DHT22;57424;53.128;6.406;2022-09-01T03:57:32;22.10;52.50
66598;DHT22;57424;53.128;6.406;2022-09-01T03:59:58;22.20;53.00
66598;DHT22;57424;53.128;6.406;2022-09-01T04:02:25;22.20;52.60
66598;DHT22;57424;53.128;6.406;2022-09-01T04:04:54;22.20;52.50
66598;DHT22;57424;53.128;6.406;2022-09-01T04:07:19;22.20;52.50
66598;DHT22;57424;53.128;6.406;2022-09-01T04:09:45;22.20;52.50
66598;DHT22;57424;53.128;6.406;2022-09-01T04:12:10;22.10;52.50
66598;DHT22;57424;53.128;6.406;2022-09-01T04:14:40;22.10;52.50
66598;DHT22;57424;53.128;6.406;2022-09-01T04:17:05;22.10;52.50
66598;DHT22;57424;53.128;6.406;2022-09-01T04:19:49;22.10;52.50
66598;DHT22;57424;53.128;6.406;2022-09-01T04:22:15;22.10;52.50
66598;DHT22;57424;53.128;6.406;2022-09-01T04:24:42;22.10;52.50
66598;DHT22;57424;53.128;6.406;2022-09-01T04:27:10;22.10;52.60
66598;DHT22;57424;53.128;6.406;2022-09-01T04:29:36;22.10;52.50
66598;DHT22;57424;53.128;6.406;2022-09-01T04:32:05;22.10;52.50
66598;DHT22;57424;53.128;6.406;2022-09-01T04:34:36;22.10;52.50
66598;DHT22;57424;53.128;6.406;2022-09-01T04:37:10;22.10;52.50
66598;DHT22;57424;53.128;6.406;2022-09-01T04:39:37;22.10;52.50
66598;DHT22;57424;53.128;6.406;2022-09-01T04:42:03;22.10;52.50
66598;DHT22;57424;53.128;6.406;2022-09-01T04:44:30;22.10;52.50
66598;DHT22;57424;53.128;6.406;2022-09-01T04:46:56;22.10;52.50
66598;DHT22;57424;53.128;6.406;2022-09-01T04:49:21;22.10;52.50
66598;DHT22;57424;53.128;6.406;2022-09-01T04:51:51;22.10;52.50
66598;DHT22;57424;53.128;6.406;2022-09-01T04:54:17;22.00;52.50
66598;DHT22;57424;53.128;6.406;2022-09-01T04:56:46;22.00;52.40
66598;DHT22;57424;53.128;6.406;2022-09-01T04:59:16;22.00;52.50
66598;DHT22;57424;53.128;6.406;2022-09-01T05:01:42;22.00;52.50
66598;DHT22;57424;53.128;6.406;2022-09-01T05:04:28;22.00;52.50
66598;DHT22;57424;53.128;6.406;2022-09-01T05:06:58;22.10;52.50
66598;DHT22;57424;53.128;6.406;2022-09-01T05:09:26;22.00;52.50
66598;DHT22;57424;53.128;6.406;2022-09-01T05:11:53;22.00;52.50
66598;DHT22;57424;53.128;6.406;2022-09-01T05:14:19;22.00;52.50
66598;DHT22;57424;53.128;6.406;2022-09-01T05:16:46;22.10;52.50
66598;DHT22;57424;53.128;6.406;2022-09-01T05:19:12;22.00;52.50
66598;DHT22;57424;53.128;6.406;2022-09-01T05:21:43;22.00;52.50
66598;DHT22;57424;53.128;6.406;2022-09-01T05:24:18;22.00;52.50
66598;DHT22;57424;53.128;6.406;2022-09-01T05:26:46;22.00;52.50
66598;DHT22;57424;53.128;6.406;2022-09-01T05:29:14;22.00;52.50
66598;DHT22;57424;53.128;6.406;2022-09-01T05:31:47;22.00;52.50
66598;DHT22;57424;53.128;6.406;2022-09-01T05:34:14;22.00;52.50
66598;DHT22;57424;53.128;6.406;2022-09-01T05:36:45;22.00;52.50
66598;DHT22;57424;53.128;6.406;2022-09-01T05:39:14;22.00;52.50
66598;DHT22;57424;53.128;6.406;2022-09-01T05:41:41;22.00;52.50
66598;DHT22;57424;53.128;6.406;2022-09-01T05:44:08;21.90;52.40
66598;DHT22;57424;53.128;6.406;2022-09-01T05:46:36;22.00;52.50
66598;DHT22;57424;53.128;6.406;2022-09-01T05:49:04;22.00;52.50
66598;DHT22;57424;53.128;6.406;2022-09-01T05:51:31;22.00;52.50
66598;DHT22;57424;53.128;6.406;2022-09-01T05:54:00;22.00;52.50
66598;DHT22;57424;53.128;6.406;2022-09-01T05:56:27;22.00;52.50
66598;DHT22;57424;53.128;6.406;2022-09-01T05:58:54;21.90;52.50
66598;DHT22;57424;53.128;6.406;2022-09-01T06:01:22;22.00;52.50
66598;DHT22;57424;53.128;6.406;2022-09-01T06:03:54;22.00;52.50
66598;DHT22;57424;53.128;6.406;2022-09-01T06:06:27;22.00;52.50
66598;DHT22;57424;53.128;6.406;2022-09-01T06:08:54;21.90;52.50
66598;DHT22;57424;53.128;6.406;2022-09-01T06:11:23;21.90;52.50
66598;DHT22;57424;53.128;6.406;2022-09-01T06:13:50;21.90;52.50
66598;DHT22;57424;53.128;6.406;2022-09-01T06:16:16;21.90;52.50
66598;DHT22;57424;53.128;6.406;2022-09-01T06:18:44;21.90;52.50
66598;DHT22;57424;53.128;6.406;2022-09-01T06:21:11;21.90;52.50
66598;DHT22;57424;53.128;6.406;2022-09-01T06:23:41;21.90;52.50
66598;DHT22;57424;53.128;6.406;2022-09-01T06:26:18;21.90;52.50
66598;DHT22;57424;53.128;6.406;2022-09-01T06:28:45;21.90;52.50
66598;DHT22;57424;53.128;6.406;2022-09-01T06:31:11;21.90;52.40
66598;DHT22;57424;53.128;6.406;2022-09-01T06:33:37;21.90;52.70
66598;DHT22;57424;53.128;6.406;2022-09-01T06:36:04;21.90;52.90
66598;DHT22;57424;53.128;6.406;2022-09-01T06:38:30;21.90;53.00
66598;DHT22;57424;53.128;6.406;2022-09-01T06:41:04;21.90;53.10
66598;DHT22;57424;53.128;6.406;2022-09-01T06:43:33;21.90;53.20
66598;DHT22;57424;53.128;6.406;2022-09-01T06:46:00;22.00;53.30
66598;DHT22;57424;53.128;6.406;2022-09-01T06:48:27;22.00;53.10
66598;DHT22;57424;53.128;6.406;2022-09-01T06:50:58;22.00;53.10
66598;DHT22;57424;53.128;6.406;2022-09-01T06:53:24;22.00;53.10
66598;DHT22;57424;53.128;6.406;2022-09-01T06:55:49;22.00;53.00
66598;DHT22;57424;53.128;6.406;2022-09-01T06:58:17;22.00;53.00
66598;DHT22;57424;53.128;6.406;2022-09-01T07:00:43;22.00;53.00
66598;DHT22;57424;53.128;6.406;2022-09-01T07:03:11;22.00;53.20
66598;DHT22;57424;53.128;6.406;2022-09-01T07:05:42;22.00;53.20
66598;DHT22;57424;53.128;6.406;2022-09-01T07:08:10;22.00;53.30
66598;DHT22;57424;53.128;6.406;2022-09-01T07:10:43;22.00;53.30
66598;DHT22;57424;53.128;6.406;2022-09-01T07:13:11;22.10;53.40
66598;DHT22;57424;53.128;6.406;2022-09-01T07:15:44;22.10;53.50
66598;DHT22;57424;53.128;6.406;2022-09-01T07:18:12;22.10;53.50
66598;DHT22;57424;53.128;6.406;2022-09-01T07:20:40;22.00;53.50
66598;DHT22;57424;53.128;6.406;2022-09-01T07:23:06;22.00;53.50
66598;DHT22;57424;53.128;6.406;2022-09-01T07:25:43;22.10;53.60
66598;DHT22;57424;53.128;6.406;2022-09-01T07:28:10;22.10;53.60
66598;DHT22;57424;53.128;6.406;2022-09-01T07:30:43;22.10;53.60
66598;DHT22;57424;53.128;6.406;2022-09-01T07:33:11;22.10;53.60
66598;DHT22;57424;53.128;6.406;2022-09-01T07:35:39;22.20;53.60
66598;DHT22;57424;53.128;6.406;2022-09-01T07:38:05;22.20;53.50
66598;DHT22;57424;53.128;6.406;2022-09-01T07:40:35;22.20;53.40
66598;DHT22;57424;53.128;6.406;2022-09-01T07:43:12;22.30;53.40
66598;DHT22;57424;53.128;6.406;2022-09-01T07:45:43;22.30;53.30
66598;DHT22;57424;53.128;6.406;2022-09-01T07:48:11;22.40;53.30
66598;DHT22;57424;53.128;6.406;2022-09-01T07:50:42;22.40;53.20
66598;DHT22;57424;53.128;6.406;2022-09-01T07:53:12;22.40;53.20
66598;DHT22;57424;53.128;6.406;2022-09-01T07:55:39;22.40;53.70
66598;DHT22;57424;53.128;6.406;2022-09-01T07:58:08;22.50;53.10
66598;DHT22;57424;53.128;6.406;2022-09-01T08:00:35;22.50;53.00
66598;DHT22;57424;53.128;6.406;2022-09-01T08:03:01;22.50;53.00
66598;DHT22;57424;53.128;6.406;2022-09-01T08:05:27;22.60;53.00
66598;DHT22;57424;53.128;6.406;2022-09-01T08:07:53;22.60;52.90
66598;DHT22;57424;53.128;6.406;2022-09-01T08:10:19;22.70;53.00
66598;DHT22;57424;53.128;6.406;2022-09-01T08:12:45;22.70;53.00
66598;DHT22;57424;53.128;6.406;2022-09-01T08:15:11;22.60;52.90
66598;DHT22;57424;53.128;6.406;2022-09-01T08:17:37;22.70;52.90
66598;DHT22;57424;53.128;6.406;2022-09-01T08:20:04;22.70;52.90
66598;DHT22;57424;53.128;6.406;2022-09-01T08:22:33;22.70;52.90
66598;DHT22;57424;53.128;6.406;2022-09-01T08:24:58;22.80;52.90
66598;DHT22;57424;53.128;6.406;2022-09-01T08:27:24;22.80;52.90
66598;DHT22;57424;53.128;6.406;2022-09-01T08:29:49;22.80;52.90
66598;DHT22;57424;53.128;6.406;2022-09-01T08:32:15;22.80;52.90
66598;DHT22;57424;53.128;6.406;2022-09-01T08:34:41;22.80;52.90
66598;DHT22;57424;53.128;6.406;2022-09-01T08:37:07;22.80;52.90
66598;DHT22;57424;53.128;6.406;2022-09-01T08:39:33;22.80;52.90
66598;DHT22;57424;53.128;6.406;2022-09-01T08:47:11;22.90;53.00
66598;DHT22;57424;53.128;6.406;2022-09-01T08:49:39;22.90;53.00
66598;DHT22;57424;53.128;6.406;2022-09-01T08:54:52;23.00;53.00
66598;DHT22;57424;53.128;6.406;2022-09-01T08:57:30;22.90;53.00
66598;DHT22;57424;53.128;6.406;2022-09-01T08:59:56;22.90;53.00
66598;DHT22;57424;53.128;6.406;2022-09-01T09:02:35;22.90;53.00
66598;DHT22;57424;53.128;6.406;2022-09-01T09:10:58;23.00;53.10
66598;DHT22;57424;53.128;6.406;2022-09-01T09:16:39;23.10;53.20
66598;DHT22;57424;53.128;6.406;2022-09-01T09:19:25;23.00;53.20
66598;DHT22;57424;53.128;6.406;2022-09-01T09:21:53;23.10;53.20
66598;DHT22;57424;53.128;6.406;2022-09-01T09:24:28;23.10;53.10
66598;DHT22;57424;53.128;6.406;2022-09-01T09:26:57;23.10;53.00
66598;DHT22;57424;53.128;6.406;2022-09-01T09:29:25;23.10;52.80
66598;DHT22;57424;53.128;6.406;2022-09-01T09:32:06;23.10;52.60
66598;DHT22;57424;53.128;6.406;2022-09-01T09:34:40;23.10;52.50
66598;DHT22;57424;53.128;6.406;2022-09-01T09:37:25;23.10;52.50
66598;DHT22;57424;53.128;6.406;2022-09-01T09:40:14;23.10;52.50
66598;DHT22;57424;53.128;6.406;2022-09-01T09:42:57;23.10;52.50
66598;DHT22;57424;53.128;6.406;2022-09-01T09:45:26;23.10;52.60
66598;DHT22;57424;53.128;6.406;2022-09-01T09:47:53;23.10;52.70
66598;DHT22;57424;53.128;6.406;2022-09-01T09:50:40;23.10;52.70
66598;DHT22;57424;53.128;6.406;2022-09-01T09:56:20;23.10;52.50
66598;DHT22;57424;53.128;6.406;2022-09-01T09:58:48;23.10;52.50
66598;DHT22;57424;53.128;6.406;2022-09-01T10:03:55;23.10;52.70
66598;DHT22;57424;53.128;6.406;2022-09-01T10:06:38;23.10;52.70
66598;DHT22;57424;53.128;6.406;2022-09-01T10:09:16;23.10;52.80
66598;DHT22;57424;53.128;6.406;2022-09-01T10:11:58;23.10;52.90
66598;DHT22;57424;53.128;6.406;2022-09-01T10:14:42;23.10;52.90
66598;DHT22;57424;53.128;6.406;2022-09-01T10:17:31;23.10;52.90
66598;DHT22;57424;53.128;6.406;2022-09-01T10:20:22;23.10;53.20
66598;DHT22;57424;53.128;6.406;2022-09-01T10:22:48;23.10;53.10
66598;DHT22;57424;53.128;6.406;2022-09-01T10:25:30;23.10;53.80
66598;DHT22;57424;53.128;6.406;2022-09-01T10:28:13;23.20;53.20
66598;DHT22;57424;53.128;6.406;2022-09-01T10:30:42;23.10;53.40
66598;DHT22;57424;53.128;6.406;2022-09-01T10:33:09;23.10;53.50
66598;DHT22;57424;53.128;6.406;2022-09-01T10:35:38;23.10;53.60
66598;DHT22;57424;53.128;6.406;2022-09-01T10:38:08;23.20;53.70
66598;DHT22;57424;53.128;6.406;2022-09-01T10:40:39;23.20;53.80
66598;DHT22;57424;53.128;6.406;2022-09-01T10:48:44;23.20;53.70
66598;DHT22;57424;53.128;6.406;2022-09-01T10:53:50;23.20;53.50
66598;DHT22;57424;53.128;6.406;2022-09-01T10:56:38;23.20;53.40
66598;DHT22;57424;53.128;6.406;2022-09-01T11:04:10;23.20;52.90
66598;DHT22;57424;53.128;6.406;2022-09-01T11:06:57;23.20;52.70
66598;DHT22;57424;53.128;6.406;2022-09-01T11:14:56;23.20;52.20
66598;DHT22;57424;53.128;6.406;2022-09-01T11:17:27;23.20;52.10
66598;DHT22;57424;53.128;6.406;2022-09-01T11:19:58;23.30;52.00
66598;DHT22;57424;53.128;6.406;2022-09-01T11:30:18;23.30;51.60
66598;DHT22;57424;53.128;6.406;2022-09-01T11:32:47;23.30;51.60
66598;DHT22;57424;53.128;6.406;2022-09-01T11:35:18;23.30;51.50
66598;DHT22;57424;53.128;6.406;2022-09-01T11:37:47;23.30;51.50
66598;DHT22;57424;53.128;6.406;2022-09-01T11:40:20;23.30;51.40
66598;DHT22;57424;53.128;6.406;2022-09-01T11:42:48;23.30;51.40
66598;DHT22;57424;53.128;6.406;2022-09-01T11:45:52;23.30;51.40
66598;DHT22;57424;53.128;6.406;2022-09-01T11:48:09;23.30;51.30
66598;DHT22;57424;53.128;6.406;2022-09-01T11:50:40;23.30;51.40
66598;DHT22;57424;53.128;6.406;2022-09-01T11:53:13;23.30;51.40
66598;DHT22;57424;53.128;6.406;2022-09-01T11:55:42;23.30;51.40
66598;DHT22;57424;53.128;6.406;2022-09-01T11:58:33;23.30;51.30
66598;DHT22;57424;53.128;6.406;2022-09-01T12:01:15;23.30;51.30
66598;DHT22;57424;53.128;6.406;2022-09-01T12:03:43;23.40;51.40
66598;DHT22;57424;53.128;6.406;2022-09-01T12:06:12;23.40;51.40
66598;DHT22;57424;53.128;6.406;2022-09-01T12:08:55;23.30;51.30
66598;DHT22;57424;53.128;6.406;2022-09-01T12:11:24;23.40;51.40
66598;DHT22;57424;53.128;6.406;2022-09-01T12:14:00;23.40;51.30
66598;DHT22;57424;53.128;6.406;2022-09-01T12:16:27;23.40;51.40
66598;DHT22;57424;53.128;6.406;2022-09-01T12:18:56;23.40;51.30
66598;DHT22;57424;53.128;6.406;2022-09-01T12:21:31;23.40;51.30
66598;DHT22;57424;53.128;6.406;2022-09-01T12:26:43;23.40;51.20
66598;DHT22;57424;53.128;6.406;2022-09-01T12:29:10;23.40;51.40
66598;DHT22;57424;53.128;6.406;2022-09-01T12:31:40;23.40;51.60
66598;DHT22;57424;53.128;6.406;2022-09-01T12:34:41;23.40;51.60
66598;DHT22;57424;53.128;6.406;2022-09-01T12:39:46;23.40;51.40
66598;DHT22;57424;53.128;6.406;2022-09-01T12:44:47;23.40;51.50
66598;DHT22;57424;53.128;6.406;2022-09-01T12:50:05;23.40;51.80
66598;DHT22;57424;53.128;6.406;2022-09-01T12:52:34;23.40;52.00
66598;DHT22;57424;53.128;6.406;2022-09-01T12:57:29;23.50;52.10
66598;DHT22;57424;53.128;6.406;2022-09-01T13:02:40;23.50;52.10
66598;DHT22;57424;53.128;6.406;2022-09-01T13:07:54;23.50;52.40
66598;DHT22;57424;53.128;6.406;2022-09-01T13:10:20;23.50;52.50
66598;DHT22;57424;53.128;6.406;2022-09-01T13:12:47;23.50;52.50
66598;DHT22;57424;53.128;6.406;2022-09-01T13:15:13;23.50;52.60
66598;DHT22;57424;53.128;6.406;2022-09-01T13:17:38;23.50;52.50
66598;DHT22;57424;53.128;6.406;2022-09-01T13:20:05;23.60;52.60
66598;DHT22;57424;53.128;6.406;2022-09-01T13:22:32;23.60;52.70
66598;DHT22;57424;53.128;6.406;2022-09-01T13:24:58;23.50;52.50
66598;DHT22;57424;53.128;6.406;2022-09-01T13:27:24;23.60;52.60
66598;DHT22;57424;53.128;6.406;2022-09-01T13:29:50;23.60;52.50
66598;DHT22;57424;53.128;6.406;2022-09-01T13:32:19;23.60;53.20
66598;DHT22;57424;53.128;6.406;2022-09-01T13:34:45;23.60;52.50
66598;DHT22;57424;53.128;6.406;2022-09-01T13:37:11;23.60;52.50
66598;DHT22;57424;53.128;6.406;2022-09-01T13:39:37;23.60;52.50
66598;DHT22;57424;53.128;6.406;2022-09-01T13:42:02;23.60;52.30
66598;DHT22;57424;53.128;6.406;2022-09-01T13:44:28;23.60;52.20
66598;DHT22;57424;53.128;6.406;2022-09-01T13:46:54;23.60;52.00
66598;DHT22;57424;53.128;6.406;2022-09-01T13:49:19;23.70;51.90
66598;DHT22;57424;53.128;6.406;2022-09-01T13:51:50;23.60;51.80
66598;DHT22;57424;53.128;6.406;2022-09-01T13:54:16;23.70;51.70
66598;DHT22;57424;53.128;6.406;2022-09-01T13:56:42;23.70;51.50
66598;DHT22;57424;53.128;6.406;2022-09-01T13:59:08;23.70;51.40
66598;DHT22;57424;53.128;6.406;2022-09-01T14:01:33;23.70;51.30
66598;DHT22;57424;53.128;6.406;2022-09-01T14:04:00;23.70;51.30
66598;DHT22;57424;53.128;6.406;2022-09-01T14:06:28;23.70;51.20
66598;DHT22;57424;53.128;6.406;2022-09-01T14:08:53;23.70;51.10
66598;DHT22;57424;53.128;6.406;2022-09-01T14:11:19;23.70;51.10
66598;DHT22;57424;53.128;6.406;2022-09-01T14:13:45;23.70;51.00
66598;DHT22;57424;53.128;6.406;2022-09-01T14:16:12;23.70;50.90
66598;DHT22;57424;53.128;6.406;2022-09-01T14:18:39;23.70;50.80
66598;DHT22;57424;53.128;6.406;2022-09-01T14:21:10;23.70;50.80
66598;DHT22;57424;53.128;6.406;2022-09-01T14:23:36;23.70;50.70
66598;DHT22;57424;53.128;6.406;2022-09-01T14:26:01;23.70;50.80
66598;DHT22;57424;53.128;6.406;2022-09-01T14:28:27;23.70;50.70
66598;DHT22;57424;53.128;6.406;2022-09-01T14:30:52;23.80;50.70
66598;DHT22;57424;53.128;6.406;2022-09-01T14:33:18;23.70;50.60
66598;DHT22;57424;53.128;6.406;2022-09-01T14:35:48;23.80;50.60
66598;DHT22;57424;53.128;6.406;2022-09-01T14:38:15;23.70;50.40
66598;DHT22;57424;53.128;6.406;2022-09-01T14:40:42;23.70;50.30
66598;DHT22;57424;53.128;6.406;2022-09-01T14:43:09;23.80;50.30
66598;DHT22;57424;53.128;6.406;2022-09-01T14:45:37;23.80;50.20
66598;DHT22;57424;53.128;6.406;2022-09-01T14:48:03;23.80;50.20
66598;DHT22;57424;53.128;6.406;2022-09-01T14:50:30;23.80;50.10
66598;DHT22;57424;53.128;6.406;2022-09-01T14:53:00;23.70;50.10
66598;DHT22;57424;53.128;6.406;2022-09-01T14:55:28;23.80;50.00
66598;DHT22;57424;53.128;6.406;2022-09-01T14:57:55;23.80;50.10
66598;DHT22;57424;53.128;6.406;2022-09-01T15:00:22;23.70;50.00
66598;DHT22;57424;53.128;6.406;2022-09-01T15:02:49;23.70;50.00
66598;DHT22;57424;53.128;6.406;2022-09-01T15:05:15;23.80;50.00
66598;DHT22;57424;53.128;6.406;2022-09-01T15:07:42;23.80;50.00
66598;DHT22;57424;53.128;6.406;2022-09-01T15:10:10;23.80;49.90
66598;DHT22;57424;53.128;6.406;2022-09-01T15:12:36;23.70;49.80
66598;DHT22;57424;53.128;6.406;2022-09-01T15:15:05;23.80;49.80
66598;DHT22;57424;53.128;6.406;2022-09-01T15:17:31;23.80;49.70
66598;DHT22;57424;53.128;6.406;2022-09-01T15:19:57;23.80;49.70
66598;DHT22;57424;53.128;6.406;2022-09-01T15:22:42;23.80;49.60
66598;DHT22;57424;53.128;6.406;2022-09-01T15:25:08;23.80;49.60
66598;DHT22;57424;53.128;6.406;2022-09-01T15:27:34;23.80;49.50
66598;DHT22;57424;53.128;6.406;2022-09-01T15:30:00;23.80;49.50
66598;DHT22;57424;53.128;6.406;2022-09-01T15:32:25;23.90;49.60
66598;DHT22;57424;53.128;6.406;2022-09-01T15:34:51;23.80;49.50
66598;DHT22;57424;53.128;6.406;2022-09-01T15:37:16;23.90;49.30
66598;DHT22;57424;53.128;6.406;2022-09-01T15:39:42;23.90;49.30
66598;DHT22;57424;53.128;6.406;2022-09-01T15:42:07;23.90;49.20
66598;DHT22;57424;53.128;6.406;2022-09-01T15:44:33;23.80;49.10
66598;DHT22;57424;53.128;6.406;2022-09-01T15:47:00;23.90;49.20
66598;DHT22;57424;53.128;6.406;2022-09-01T15:49:25;23.90;49.20
66598;DHT22;57424;53.128;6.406;2022-09-01T15:51:54;23.90;49.20
66598;DHT22;57424;53.128;6.406;2022-09-01T15:54:20;23.90;49.10
66598;DHT22;57424;53.128;6.406;2022-09-01T15:56:46;23.80;49.10
66598;DHT22;57424;53.128;6.406;2022-09-01T15:59:12;23.90;49.30
66598;DHT22;57424;53.128;6.406;2022-09-01T16:01:40;23.90;49.40
66598;DHT22;57424;53.128;6.406;2022-09-01T16:04:08;23.90;49.50
66598;DHT22;57424;53.128;6.406;2022-09-01T16:06:36;23.90;49.60
66598;DHT22;57424;53.128;6.406;2022-09-01T16:09:03;23.90;49.80
66598;DHT22;57424;53.128;6.406;2022-09-01T16:11:29;23.90;49.90
66598;DHT22;57424;53.128;6.406;2022-09-01T16:13:55;23.90;49.90
66598;DHT22;57424;53.128;6.406;2022-09-01T16:22:09;23.90;49.60
66598;DHT22;57424;53.128;6.406;2022-09-01T16:24:44;24.00;49.70
66598;DHT22;57424;53.128;6.406;2022-09-01T16:27:22;24.00;49.70
66598;DHT22;57424;53.128;6.406;2022-09-01T16:29:57;24.00;49.50
66598;DHT22;57424;53.128;6.406;2022-09-01T16:32:23;24.00;49.50
66598;DHT22;57424;53.128;6.406;2022-09-01T16:34:51;24.00;49.50
66598;DHT22;57424;53.128;6.406;2022-09-01T16:40:15;24.00;49.40
66598;DHT22;57424;53.128;6.406;2022-09-01T16:43:05;24.00;49.50
66598;DHT22;57424;53.128;6.406;2022-09-01T16:56:49;24.00;50.00
66598;DHT22;57424;53.128;6.406;2022-09-01T17:02:30;24.10;50.20
66598;DHT22;57424;53.128;6.406;2022-09-01T17:05:09;24.00;50.20
66598;DHT22;57424;53.128;6.406;2022-09-01T17:12:52;24.00;50.30
66598;DHT22;57424;53.128;6.406;2022-09-01T17:15:36;24.10;50.30
66598;DHT22;57424;53.128;6.406;2022-09-01T17:20:42;24.00;50.20
66598;DHT22;57424;53.128;6.406;2022-09-01T17:23:14;24.00;50.20